Time;durP1;ratioP1;P1;durP2;ratioP2;P2;SDS_P1;SDS_P2;PMS_P1;PMS_P2;Temp;Humidity;BMP_temperature;BMP_pressure;BME280_temperature;BME280_humidity;BME280_pressure;Samples;Min_cycle;Max_cycle;Signal;HPM_P1;HPM_P2
2022/12/11 00:01:59;;;;;;;;;40.25;35.00;;;;;1.44;100.00;101065.09;5033036;28;46432;-79
2022/12/11 00:04:25;;;;;;;;;36.25;33.25;;;;;1.40;100.00;101034.94;5031021;28;45496;-79
2022/12/11 00:06:52;;;;;;;;;27.00;23.50;;;;;1.54;100.00;101056.47;5029811;28;45440;-79
2022/12/11 00:09:18;;;;;;;;;45.50;33.50;;;;;1.48;100.00;101045.22;5035767;28;45314;-79
2022/12/11 00:11:44;;;;;;;;;36.50;26.50;;;;;1.48;100.00;101046.09;5033779;28;45402;-78
2022/12/11 00:14:10;;;;;;;;;33.75;28.75;;;;;1.43;100.00;101044.63;5036177;28;45259;-79
2022/12/11 00:16:35;;;;;;;;;43.00;30.50;;;;;1.51;100.00;101045.06;5038641;28;45506;-79
2022/12/11 00:19:00;;;;;;;;;33.75;30.00;;;;;1.52;100.00;101039.66;5035349;28;45287;-79
2022/12/11 00:21:26;;;;;;;;;37.00;32.00;;;;;1.54;100.00;101045.75;5038082;28;48024;-79
2022/12/11 00:23:51;;;;;;;;;38.50;29.50;;;;;1.52;100.00;101028.06;5036336;28;45410;-79
2022/12/11 00:26:17;;;;;;;;;44.00;30.00;;;;;1.50;100.00;101028.16;5028746;28;45701;-79
2022/12/11 00:28:43;;;;;;;;;34.25;29.25;;;;;1.45;100.00;101014.16;5042953;28;44853;-78
2022/12/11 00:31:16;;;;;;;;;28.50;23.25;;;;;1.44;100.00;101012.44;5033832;28;47179;-78
2022/12/11 00:33:43;;;;;;;;;39.00;33.00;;;;;1.47;100.00;101025.63;5035197;28;46230;-78
2022/12/11 00:36:14;;;;;;;;;37.25;30.25;;;;;1.35;100.00;101018.28;5033762;28;45316;-79
2022/12/11 00:38:40;;;;;;;;;38.75;35.00;;;;;1.31;100.00;101011.38;5027544;28;45359;-78
2022/12/11 00:41:05;;;;;;;;;39.25;35.25;;;;;1.18;100.00;100999.56;5034103;28;47498;-78
2022/12/11 00:43:31;;;;;;;;;40.25;30.00;;;;;1.13;100.00;101017.69;5028062;28;45284;-79
2022/12/11 00:45:56;;;;;;;;;38.00;28.25;;;;;1.10;100.00;101023.19;5039436;28;45283;-78
2022/12/11 00:48:21;;;;;;;;;39.25;31.25;;;;;1.10;100.00;101024.06;5035842;28;45370;-78
2022/12/11 00:50:47;;;;;;;;;30.50;24.25;;;;;1.05;100.00;101006.53;5030425;28;47961;-78
2022/12/11 00:53:12;;;;;;;;;35.50;29.75;;;;;1.07;100.00;101002.84;5037876;28;45418;-77
2022/12/11 00:55:40;;;;;;;;;43.00;33.50;;;;;1.13;100.00;101005.19;5034499;28;45311;-79
2022/12/11 00:58:06;;;;;;;;;38.75;25.50;;;;;1.19;100.00;101006.66;5041004;28;45445;-78
2022/12/11 01:00:32;;;;;;;;;38.00;26.75;;;;;1.26;100.00;101008.06;5036966;28;45417;-78
2022/12/11 01:02:57;;;;;;;;;34.00;30.25;;;;;1.35;100.00;101002.22;5040748;28;45243;-77
2022/12/11 01:05:23;;;;;;;;;33.25;24.50;;;;;1.34;100.00;100988.91;5039524;28;45293;-78
2022/12/11 01:07:48;;;;;;;;;36.50;25.00;;;;;1.43;100.00;101004.47;5036217;28;45349;-79
2022/12/11 01:10:22;;;;;;;;;40.75;29.50;;;;;1.51;100.00;101005.78;5039127;28;45307;-78
2022/12/11 01:12:53;;;;;;;;;33.25;29.00;;;;;1.31;100.00;100981.06;5029141;28;45252;-78
2022/12/11 01:15:19;;;;;;;;;38.25;29.25;;;;;1.33;100.00;100992.53;5042537;28;45571;-77
2022/12/11 01:17:45;;;;;;;;;39.75;35.75;;;;;1.31;100.00;100995.31;5035618;28;45729;-78
2022/12/11 01:20:11;;;;;;;;;35.75;28.25;;;;;1.28;100.00;100989.25;5036392;28;45543;-78
2022/12/11 01:22:36;;;;;;;;;33.25;29.50;;;;;1.34;100.00;100995.13;5038118;28;45555;-79
2022/12/11 01:25:02;;;;;;;;;46.50;35.75;;;;;1.30;100.00;100993.56;5029873;28;45306;-79
2022/12/11 01:27:28;;;;;;;;;29.75;24.50;;;;;1.32;100.00;100997.00;5033259;28;45145;-79
2022/12/11 01:29:53;;;;;;;;;26.25;22.25;;;;;1.30;100.00;100988.22;5038592;28;45955;-77
2022/12/11 01:32:18;;;;;;;;;27.25;24.75;;;;;1.34;100.00;100991.59;5032933;28;47434;-78
2022/12/11 01:34:44;;;;;;;;;32.50;25.50;;;;;1.28;100.00;100991.91;5035563;28;45393;-77
2022/12/11 01:37:09;;;;;;;;;39.25;29.75;;;;;1.24;100.00;100998.41;5035664;28;45539;-78
2022/12/11 01:39:37;;;;;;;;;31.50;23.75;;;;;1.28;100.00;101000.81;5031659;28;45374;-78
2022/12/11 01:42:02;;;;;;;;;34.25;30.00;;;;;1.24;100.00;100999.28;5028184;28;45937;-78
2022/12/11 01:44:28;;;;;;;;;27.50;25.00;;;;;1.26;100.00;101008.06;5034670;28;45445;-78
2022/12/11 01:46:53;;;;;;;;;25.75;25.25;;;;;1.15;100.00;100997.09;5038895;28;45485;-78
2022/12/11 01:49:21;;;;;;;;;36.00;25.75;;;;;1.21;100.00;100999.44;5034420;28;46468;-78
2022/12/11 01:51:57;;;;;;;;;26.00;24.50;;;;;1.16;100.00;100996.13;5028189;28;45381;-78
2022/12/11 01:54:26;;;;;;;;;21.25;17.00;;;;;1.18;100.00;100999.56;5035422;28;45279;-78
2022/12/11 01:56:56;;;;;;;;;25.00;19.25;;;;;1.13;100.00;101002.50;5031723;28;45540;-78
2022/12/11 01:59:25;;;;;;;;;23.25;18.25;;;;;1.13;100.00;101007.88;5039686;28;46466;-78
2022/12/11 02:02:21;;;;;;;;;32.50;25.00;;;;;1.18;100.00;101021.84;5039847;28;45176;-77
2022/12/11 02:04:50;;;;;;;;;32.25;28.25;;;;;1.12;100.00;101015.97;5038543;28;45650;-77
2022/12/11 02:07:15;;;;;;;;;29.25;21.50;;;;;1.12;100.00;101018.66;5028793;28;45458;-77
2022/12/11 02:09:44;;;;;;;;;31.00;26.00;;;;;1.16;100.00;100999.69;5036527;28;45735;-77
2022/12/11 02:12:24;;;;;;;;;26.50;19.50;;;;;1.12;100.00;100997.25;5032791;28;45440;-77
2022/12/11 02:15:05;;;;;;;;;34.50;25.25;;;;;1.10;100.00;100996.44;5038952;28;45359;-77
2022/12/11 02:18:00;;;;;;;;;27.00;21.25;;;;;1.07;100.00;100985.94;5037958;28;45451;-77
2022/12/11 02:20:35;;;;;;;;;29.50;22.00;;;;;1.05;100.00;100998.50;5036542;28;46377;-77
2022/12/11 02:23:15;;;;;;;;;32.75;27.75;;;;;0.96;100.00;101001.66;5032860;28;45306;-78
2022/12/11 02:25:57;;;;;;;;;27.00;21.00;;;;;0.94;100.00;100992.88;5031281;28;45421;-77
2022/12/11 02:28:31;;;;;;;;;37.00;29.50;;;;;0.99;100.00;100996.16;5038587;28;45602;-78
2022/12/11 02:31:04;;;;;;;;;36.00;28.00;;;;;1.04;100.00;100981.59;5034530;28;45661;-77
2022/12/11 02:33:44;;;;;;;;;31.75;25.00;;;;;1.05;100.00;100982.47;5034545;28;45369;-78
2022/12/11 02:36:10;;;;;;;;;26.25;23.00;;;;;0.97;100.00;100987.34;5032525;28;45516;-78
2022/12/11 02:38:40;;;;;;;;;21.25;20.00;;;;;0.88;100.00;100964.63;5026831;28;45458;-78
2022/12/11 02:41:09;;;;;;;;;30.25;25.25;;;;;0.69;100.00;100964.75;5034776;28;45414;-78
2022/12/11 02:43:36;;;;;;;;;32.75;24.75;;;;;0.86;100.00;100976.38;5039348;28;45289;-78
2022/12/11 02:46:04;;;;;;;;;28.75;21.50;;;;;0.87;100.00;100978.09;5039734;28;45172;-78
2022/12/11 02:48:32;;;;;;;;;25.50;18.75;;;;;0.94;100.00;100979.50;5036221;28;45263;-78
2022/12/11 02:51:00;;;;;;;;;25.25;21.75;;;;;0.89;100.00;100968.16;5027343;28;46312;-78
2022/12/11 02:53:30;;;;;;;;;31.25;26.25;;;;;0.93;100.00;100977.78;5038514;28;45464;-78
2022/12/11 02:56:10;;;;;;;;;28.75;24.25;;;;;0.92;100.00;100960.84;5033603;28;45350;-78
2022/12/11 02:58:38;;;;;;;;;26.50;22.75;;;;;0.93;100.00;100956.38;5036839;28;45481;-78
2022/12/11 03:01:04;;;;;;;;;30.00;24.00;;;;;0.85;100.00;100969.28;5037804;28;47243;-78
2022/12/11 03:03:29;;;;;;;;;21.75;18.25;;;;;0.88;100.00;100971.81;5040929;28;45335;-78
2022/12/11 03:05:55;;;;;;;;;25.75;21.50;;;;;0.86;100.00;100954.97;5035644;28;45573;-79
2022/12/11 03:08:20;;;;;;;;;29.25;27.00;;;;;0.94;100.00;100958.97;5029963;28;45216;-78
2022/12/11 03:10:45;;;;;;;;;25.25;23.50;;;;;1.02;100.00;100974.63;5037944;28;46628;-78
2022/12/11 03:13:13;;;;;;;;;21.75;19.75;;;;;1.05;100.00;100983.31;5035903;28;45225;-76
2022/12/11 03:15:49;;;;;;;;;21.00;19.50;;;;;1.06;100.00;100968.13;5040811;28;45396;-77
2022/12/11 03:18:26;;;;;;;;;15.00;15.00;;;;;0.95;100.00;100959.84;5035113;28;45476;-78
2022/12/11 03:21:05;;;;;;;;;19.50;19.50;;;;;0.90;100.00;100959.19;5037739;28;45637;-78
2022/12/11 03:23:48;;;;;;;;;26.00;21.00;;;;;0.92;100.00;100962.66;5025735;28;45272;-77
2022/12/11 03:26:16;;;;;;;;;22.50;16.75;;;;;0.87;100.00;100968.28;5033378;28;45418;-77
2022/12/11 03:28:49;;;;;;;;;20.75;18.00;;;;;0.88;100.00;100958.44;5031066;28;45286;-77
2022/12/11 03:31:44;;;;;;;;;22.75;18.50;;;;;0.90;100.00;100954.72;5029989;28;45366;-78
2022/12/11 03:34:26;;;;;;;;;27.00;21.00;;;;;0.84;100.00;100951.50;5025572;28;45392;-78
2022/12/11 03:36:54;;;;;;;;;23.25;20.25;;;;;0.78;100.00;100945.56;5026552;28;45371;-79
2022/12/11 03:39:28;;;;;;;;;20.00;18.25;;;;;0.81;100.00;100959.69;5029318;28;45363;-78
2022/12/11 03:41:54;;;;;;;;;22.25;20.50;;;;;0.84;100.00;100951.50;5036871;28;48298;-79
2022/12/11 03:44:23;;;;;;;;;16.50;15.00;;;;;0.88;100.00;100966.47;5035346;28;45287;-79
2022/12/11 03:46:51;;;;;;;;;27.50;19.00;;;;;0.92;100.00;100960.00;5040674;28;45565;-79
2022/12/11 03:49:23;;;;;;;;;23.75;18.25;;;;;0.84;100.00;100951.50;5040900;28;45306;-79
2022/12/11 03:51:51;;;;;;;;;30.50;22.00;;;;;0.85;100.00;100948.75;5032075;28;45573;-77
2022/12/11 03:54:18;;;;;;;;;29.50;22.75;;;;;0.85;100.00;100948.75;5041778;28;45460;-77
2022/12/11 03:56:45;;;;;;;;;25.75;21.25;;;;;0.91;100.00;100956.44;5029461;28;45344;-77
2022/12/11 03:59:11;;;;;;;;;24.00;19.00;;;;;0.73;100.00;100950.25;5050261;28;45285;-78
2022/12/11 04:01:36;;;;;;;;;24.50;18.50;;;;;0.65;100.00;100944.47;5035255;28;46113;-78
2022/12/11 04:04:02;;;;;;;;;26.50;20.25;;;;;0.66;100.00;100951.53;5044840;28;45358;-78
2022/12/11 04:06:27;;;;;;;;;23.50;15.50;;;;;0.63;100.00;100942.81;5037122;28;45353;-77
2022/12/11 04:08:53;;;;;;;;;18.25;15.25;;;;;0.64;100.00;100940.06;5040718;28;45420;-78
2022/12/11 04:11:33;;;;;;;;;20.00;17.25;;;;;0.65;100.00;100944.47;5040498;28;46637;-77
2022/12/11 04:16:52;;;;;;;;;17.50;14.75;;;;;0.73;100.00;100947.59;5038020;28;45371;-78
2022/12/11 04:24:39;;;;;;;;;21.25;15.00;;;;;0.68;100.00;100944.28;5034255;28;45292;-78
2022/12/11 04:27:05;;;;;;;;;16.25;16.00;;;;;0.73;100.00;100931.53;5030516;28;45292;-78
2022/12/11 04:29:30;;;;;;;;;23.75;20.50;;;;;0.69;100.00;100945.16;5043783;28;45470;-78
2022/12/11 04:31:56;;;;;;;;;18.25;13.75;;;;;0.54;100.00;100946.84;5041966;28;47778;-77
2022/12/11 04:34:21;;;;;;;;;13.75;12.00;;;;;0.61;100.00;100942.91;5030267;28;45369;-78
2022/12/11 04:36:46;;;;;;;;;19.25;14.00;;;;;0.55;100.00;100932.53;5039469;28;45694;-78
2022/12/11 04:39:12;;;;;;;;;17.50;17.25;;;;;0.52;100.00;100921.13;5028305;28;45378;-78
2022/12/11 04:41:37;;;;;;;;;13.75;11.00;;;;;0.56;100.00;100922.69;5029652;28;46616;-78
2022/12/11 04:44:04;;;;;;;;;24.75;14.75;;;;;0.65;100.00;100930.25;5038372;28;45387;-77
2022/12/11 04:46:30;;;;;;;;;15.00;14.75;;;;;0.64;100.00;100929.38;5037665;28;45497;-77
2022/12/11 04:48:56;;;;;;;;;12.25;11.25;;;;;0.62;100.00;100915.22;5038775;28;45374;-78
2022/12/11 04:51:22;;;;;;;;;17.50;16.25;;;;;0.68;100.00;100922.91;5038813;28;46769;-77
2022/12/11 04:53:47;;;;;;;;;16.75;13.00;;;;;0.66;100.00;100918.56;5055297;28;45402;-78
2022/12/11 04:56:14;;;;;;;;;21.00;15.25;;;;;0.71;100.00;100920.09;5033169;28;45276;-78
2022/12/11 04:58:40;;;;;;;;;23.00;15.50;;;;;0.73;100.00;100928.88;5038727;28;45509;-78
2022/12/11 05:01:18;;;;;;;;;8.75;8.75;;;;;0.56;100.00;100926.25;5040208;28;47072;-78
2022/12/11 05:03:44;;;;;;;;;19.75;14.25;;;;;0.49;100.00;100919.50;5036150;28;45349;-77
2022/12/11 05:06:10;;;;;;;;;13.75;13.50;;;;;0.55;100.00;100924.50;5051294;28;45462;-77
2022/12/11 05:08:37;;;;;;;;;17.00;15.25;;;;;0.48;100.00;100928.44;5032040;28;45387;-77
2022/12/11 05:11:06;;;;;;;;;19.25;18.75;;;;;0.59;100.00;100918.03;5039358;28;47029;-78
2022/12/11 05:13:31;;;;;;;;;24.25;18.75;;;;;0.52;100.00;100913.97;5030148;28;45435;-78
2022/12/11 05:15:57;;;;;;;;;18.75;17.75;;;;;0.53;100.00;100915.69;5040846;28;45558;-77
2022/12/11 05:18:23;;;;;;;;;22.50;15.00;;;;;0.52;100.00;100911.28;5038448;28;45504;-78
2022/12/11 05:21:00;;;;;;;;;19.50;15.00;;;;;0.53;100.00;100902.31;5039698;28;46670;-78
2022/12/11 05:23:26;;;;;;;;;12.75;9.75;;;;;0.58;100.00;100905.66;5034970;28;45417;-78
2022/12/11 05:25:53;;;;;;;;;18.00;12.25;;;;;0.61;100.00;100907.28;5033842;28;45411;-78
2022/12/11 05:28:20;;;;;;;;;15.75;12.00;;;;;0.55;100.00;100903.13;5049177;28;45504;-78
2022/12/11 05:30:45;;;;;;;;;24.00;17.00;;;;;0.46;100.00;100900.06;5029336;28;46531;-78
2022/12/11 05:33:10;;;;;;;;;22.25;18.00;;;;;0.55;100.00;100905.78;5042080;28;45291;-78
2022/12/11 05:35:36;;;;;;;;;23.00;17.00;;;;;0.59;100.00;100902.00;5038947;28;45923;-77
2022/12/11 05:38:01;;;;;;;;;15.50;12.00;;;;;0.62;100.00;100909.88;5034964;28;45490;-78
2022/12/11 05:40:26;;;;;;;;;19.00;15.50;;;;;0.56;100.00;100898.63;5039722;28;47133;-77
2022/12/11 05:42:51;;;;;;;;;22.00;17.50;;;;;0.52;100.00;100895.25;5032991;28;46443;-78
2022/12/11 05:45:17;;;;;;;;;18.50;15.00;;;;;0.56;100.00;100904.84;5036025;28;45375;-78
2022/12/11 05:47:42;;;;;;;;;20.50;15.00;;;;;0.53;100.00;100906.81;5033766;28;45342;-78
2022/12/11 05:50:08;;;;;;;;;26.50;15.50;;;;;0.47;100.00;100899.13;5040595;28;45417;-77
2022/12/11 05:52:33;;;;;;;;;18.50;11.50;;;;;0.41;100.00;100908.31;5038747;28;45427;-77
2022/12/11 05:54:59;;;;;;;;;15.25;9.50;;;;;0.11;100.00;100891.22;5036810;28;45478;-77
2022/12/11 05:57:24;;;;;;;;;24.00;18.00;;;;;0.19;100.00;100897.88;5041448;28;45631;-77
2022/12/11 05:59:49;;;;;;;;;19.50;17.00;;;;;0.29;100.00;100887.59;5024572;28;46649;-77
2022/12/11 06:02:15;;;;;;;;;24.25;15.00;;;;;0.43;100.00;100886.88;5029648;28;45411;-77
2022/12/11 06:04:40;;;;;;;;;19.25;17.00;;;;;0.54;100.00;100893.38;5031709;28;45401;-78
2022/12/11 06:07:05;;;;;;;;;20.25;15.50;;;;;0.55;100.00;100897.78;5031891;28;45344;-77
2022/12/11 06:09:30;;;;;;;;;15.50;12.50;;;;;0.34;100.00;100888.22;5030548;28;46535;-77
2022/12/11 06:11:56;;;;;;;;;17.50;15.00;;;;;0.35;100.00;100900.63;5037877;28;45310;-77
2022/12/11 06:14:21;;;;;;;;;17.75;14.75;;;;;0.40;100.00;100898.59;5031812;28;45353;-77
2022/12/11 06:16:47;;;;;;;;;23.00;19.25;;;;;0.39;100.00;100902.19;5038091;28;45430;-78
2022/12/11 06:19:14;;;;;;;;;21.00;19.00;;;;;0.43;100.00;100902.91;5038039;28;45559;-79
2022/12/11 06:21:39;;;;;;;;;17.50;8.50;;;;;0.27;100.00;100892.16;5037210;28;45444;-77
2022/12/11 06:24:05;;;;;;;;;19.75;14.00;;;;;0.24;100.00;100878.94;5023220;28;45227;-79
2022/12/11 06:26:31;;;;;;;;;23.50;17.00;;;;;0.35;100.00;100880.13;5040974;28;45659;-77
2022/12/11 06:28:56;;;;;;;;;19.00;16.00;;;;;0.39;100.00;100887.03;5035378;28;47567;-77
2022/12/11 06:31:22;;;;;;;;;19.25;17.00;;;;;0.45;100.00;100876.94;5038346;28;45289;-77
2022/12/11 06:33:47;;;;;;;;;20.75;17.75;;;;;0.49;100.00;100882.06;5039536;28;45344;-77
2022/12/11 06:36:16;;;;;;;;;23.00;16.75;;;;;0.42;100.00;100886.00;5038635;28;45400;-77
2022/12/11 06:38:42;;;;;;;;;22.00;17.25;;;;;0.39;100.00;100891.50;5035682;28;45730;-77
2022/12/11 06:41:08;;;;;;;;;27.00;19.25;;;;;0.42;100.00;100880.66;5028399;28;45410;-78
2022/12/11 06:43:36;;;;;;;;;23.00;15.00;;;;;0.32;100.00;100863.38;5044815;28;45490;-79
2022/12/11 06:46:06;;;;;;;;;24.75;22.25;;;;;0.27;100.00;100876.13;5039909;28;45580;-78
2022/12/11 06:48:32;;;;;;;;;25.75;19.00;;;;;0.33;100.00;100867.78;5038650;28;46095;-79
2022/12/11 06:50:57;;;;;;;;;23.25;20.75;;;;;0.38;100.00;100869.25;5037992;28;45698;-79
2022/12/11 06:53:23;;;;;;;;;31.75;24.00;;;;;0.43;100.00;100870.84;5036520;28;45421;-79
2022/12/11 06:55:48;;;;;;;;;21.75;18.00;;;;;0.41;100.00;100868.25;5032818;28;46789;-78
2022/12/11 06:58:14;;;;;;;;;31.50;20.75;;;;;0.40;100.00;100871.84;5035909;28;45405;-78
2022/12/11 07:00:39;;;;;;;;;20.25;16.00;;;;;0.46;100.00;100867.97;5033856;28;45337;-79
2022/12/11 07:03:05;;;;;;;;;28.50;20.00;;;;;0.53;100.00;100878.28;5054350;28;45499;-78
2022/12/11 07:05:31;;;;;;;;;33.50;20.00;;;;;0.46;100.00;100866.19;5029510;28;45243;-78
2022/12/11 07:07:57;;;;;;;;;31.50;22.00;;;;;0.31;100.00;100880.34;5037405;28;46607;-78
2022/12/11 07:10:23;;;;;;;;;37.75;27.25;;;;;0.19;100.00;100881.00;5037331;28;45252;-79
2022/12/11 07:12:48;;;;;;;;;26.25;25.00;;;;;0.22;100.00;100884.34;5034680;28;45402;-78
2022/12/11 07:15:14;;;;;;;;;33.50;27.00;;;;;0.28;100.00;100884.06;5036711;28;45500;-77
2022/12/11 07:17:39;;;;;;;;;32.00;24.25;;;;;0.27;100.00;100876.13;5035915;28;47378;-76
2022/12/11 07:20:05;;;;;;;;;25.00;25.00;;;;;0.20;100.00;100875.59;5038467;28;45446;-78
2022/12/11 07:22:30;;;;;;;;;33.00;28.75;;;;;0.26;100.00;100885.06;5037963;28;45477;-79
2022/12/11 07:24:56;;;;;;;;;31.00;24.00;;;;;0.13;100.00;100876.84;5031543;28;45591;-79
2022/12/11 07:27:21;;;;;;;;;36.25;27.00;;;;;0.13;100.00;100889.34;5034070;28;46860;-79
2022/12/11 07:29:46;;;;;;;;;19.50;16.50;;;;;0.09;100.00;100904.63;5031539;28;45297;-79
2022/12/11 07:32:12;;;;;;;;;48.00;34.00;;;;;0.10;100.00;100885.00;5034473;28;45433;-79
2022/12/11 07:34:37;;;;;;;;;30.75;23.75;;;;;0.22;100.00;100896.88;5041153;28;45263;-78
2022/12/11 07:37:03;;;;;;;;;42.00;26.25;;;;;0.28;100.00;100891.22;5031063;28;45553;-79
2022/12/11 07:39:28;;;;;;;;;29.50;21.25;;;;;0.20;100.00;100888.06;5036422;28;45335;-79
2022/12/11 07:41:54;;;;;;;;;48.50;30.00;;;;;0.25;100.00;100894.03;5037572;28;45367;-78
2022/12/11 07:44:19;;;;;;;;;43.50;29.00;;;;;0.33;100.00;100897.19;5036189;28;45311;-79
2022/12/11 07:46:45;;;;;;;;;28.25;28.00;;;;;0.28;100.00;100894.75;5039162;28;46085;-79
2022/12/11 07:49:10;;;;;;;;;31.75;27.25;;;;;0.17;100.00;100896.22;5036758;28;45423;-79
2022/12/11 07:51:37;;;;;;;;;36.00;33.50;;;;;0.23;100.00;100891.44;5043312;28;45643;-78
2022/12/11 07:54:11;;;;;;;;;39.25;30.00;;;;;0.15;100.00;100896.31;5040765;28;45687;-79
2022/12/11 07:56:37;;;;;;;;;32.25;30.75;;;;;0.14;100.00;100896.41;5029971;28;46156;-79
2022/12/11 07:59:04;;;;;;;;;34.50;30.25;;;;;0.06;100.00;100893.25;5054926;28;45346;-79
2022/12/11 08:01:32;;;;;;;;;37.75;22.25;;;;;0.05;100.00;100895.06;5034789;28;45537;-78
2022/12/11 08:03:57;;;;;;;;;44.25;30.00;;;;;0.00;100.00;100892.59;5042700;28;45477;-78
2022/12/11 08:06:28;;;;;;;;;36.25;31.25;;;;;0.10;100.00;100890.34;5040107;28;45531;-77
2022/12/11 08:08:55;;;;;;;;;47.00;32.75;;;;;0.16;100.00;100894.50;5041847;28;45495;-78
2022/12/11 08:11:20;;;;;;;;;38.25;30.50;;;;;-0.06;100.00;100894.72;5041114;28;45634;-78
2022/12/11 08:13:46;;;;;;;;;42.25;35.25;;;;;-0.09;100.00;100887.75;5036063;28;45295;-80
2022/12/11 08:16:14;;;;;;;;;23.00;23.00;;;;;-0.20;100.00;100895.44;5038169;28;45477;-79
2022/12/11 08:18:41;;;;;;;;;45.25;36.00;;;;;-0.04;100.00;100901.72;5037768;28;45281;-78
2022/12/11 08:21:06;;;;;;;;;45.75;31.75;;;;;0.05;100.00;100897.75;5038512;28;45417;-79
2022/12/11 08:23:32;;;;;;;;;57.25;43.25;;;;;0.11;100.00;100896.56;5038580;28;45485;-77
2022/12/11 08:25:58;;;;;;;;;53.50;33.00;;;;;0.13;100.00;100894.69;5034306;28;46468;-78
2022/12/11 08:28:23;;;;;;;;;40.00;36.00;;;;;0.21;100.00;100892.47;5028852;28;45360;-78
2022/12/11 08:30:48;;;;;;;;;57.50;37.75;;;;;0.30;100.00;100898.19;5026471;28;45276;-78
2022/12/11 08:33:14;;;;;;;;;35.50;30.50;;;;;0.34;100.00;100901.56;5034775;28;45369;-78
2022/12/11 08:35:42;;;;;;;;;45.25;34.25;;;;;0.41;100.00;100902.97;5027183;28;45580;-78
2022/12/11 08:38:08;;;;;;;;;29.50;26.50;;;;;0.30;100.00;100903.53;5034039;28;45406;-78
2022/12/11 08:40:33;;;;;;;;;44.25;36.50;;;;;0.23;100.00;100901.25;5035416;28;45323;-79
2022/12/11 08:42:58;;;;;;;;;51.25;39.50;;;;;0.29;100.00;100912.47;5036793;28;45732;-78
2022/12/11 08:45:25;;;;;;;;;34.75;30.00;;;;;0.25;100.00;100899.38;5037986;28;47851;-78
2022/12/11 08:47:52;;;;;;;;;34.75;23.75;;;;;0.26;100.00;100895.75;5032964;28;45267;-78
2022/12/11 08:50:18;;;;;;;;;52.00;35.00;;;;;0.43;100.00;100906.44;5041025;28;45336;-80
2022/12/11 08:52:43;;;;;;;;;37.50;33.25;;;;;0.50;100.00;100894.50;5037556;28;45528;-78
2022/12/11 08:55:09;;;;;;;;;46.25;40.25;;;;;0.54;100.00;100897.84;5029042;28;46638;-78
2022/12/11 08:57:34;;;;;;;;;48.75;37.25;;;;;0.65;100.00;100893.69;5028682;28;45429;-78
2022/12/11 08:59:59;;;;;;;;;45.50;37.50;;;;;0.66;100.00;100892.69;5031152;28;45382;-78
2022/12/11 09:02:25;;;;;;;;;50.75;39.25;;;;;0.69;100.00;100892.56;5034598;28;45327;-77
2022/12/11 09:04:50;;;;;;;;;49.50;36.75;;;;;0.74;100.00;100895.84;5037023;28;45355;-79
2022/12/11 09:07:15;;;;;;;;;48.25;38.50;;;;;0.64;100.00;100867.88;5037323;28;45439;-79
2022/12/11 09:09:41;;;;;;;;;58.50;41.50;;;;;0.85;100.00;100884.56;5036774;28;45474;-79
2022/12/11 09:12:06;;;;;;;;;42.00;30.75;;;;;0.67;100.00;100870.38;5039588;28;45503;-79
2022/12/11 09:14:32;;;;;;;;;38.50;35.75;;;;;0.74;100.00;100882.47;5041518;28;45372;-79
2022/12/11 09:16:57;;;;;;;;;51.00;37.00;;;;;0.74;100.00;100866.41;5034134;28;45204;-78
2022/12/11 09:19:22;;;;;;;;;46.00;35.00;;;;;0.73;100.00;100878.06;4991736;28;1149812;-78
2022/12/11 09:21:48;;;;;;;;;33.25;30.75;;;;;0.36;100.00;100870.31;5035461;28;45723;-78
2022/12/11 09:24:14;;;;;;;;;27.50;23.75;;;;;0.23;100.00;100880.75;5031740;28;45243;-79
2022/12/11 09:26:39;;;;;;;;;55.25;38.00;;;;;0.21;100.00;100885.31;5029804;28;45176;-79
2022/12/11 09:29:05;;;;;;;;;46.25;35.50;;;;;0.37;100.00;100875.53;5032969;28;45252;-79
2022/12/11 09:31:34;;;;;;;;;52.50;42.00;;;;;0.62;100.00;100891.16;5033347;28;45392;-79
2022/12/11 09:34:03;;;;;;;;;36.25;33.25;;;;;0.38;100.00;100897.78;5032468;28;45538;-79
2022/12/11 09:36:29;;;;;;;;;40.75;37.50;;;;;0.43;100.00;100898.44;5041788;28;45512;-78
2022/12/11 09:38:54;;;;;;;;;45.00;34.75;;;;;0.38;100.00;100885.28;5037108;28;45645;-79
2022/12/11 09:41:20;;;;;;;;;51.75;37.25;;;;;0.48;100.00;100904.38;5040268;28;45441;-78
2022/12/11 09:43:58;;;;;;;;;47.75;38.00;;;;;0.48;100.00;100906.19;5028911;28;45852;-79
2022/12/11 09:46:26;;;;;;;;;51.25;32.50;;;;;0.28;100.00;100907.25;5027549;28;45535;-77
2022/12/11 09:48:52;;;;;;;;;48.50;38.00;;;;;0.20;100.00;100898.75;5039502;28;45427;-78
2022/12/11 09:51:30;;;;;;;;;49.25;43.00;;;;;0.38;100.00;100908.47;5030062;28;45306;-77
2022/12/11 09:54:00;;;;;;;;;40.50;33.25;;;;;0.62;100.00;100907.19;5036616;28;46677;-78
2022/12/11 09:56:28;;;;;;;;;34.25;27.00;;;;;0.69;100.00;100911.28;5029783;28;45379;-78
2022/12/11 09:59:21;;;;;;;;;48.00;38.00;;;;;0.72;100.00;100910.25;5039577;28;45277;-79
2022/12/11 10:02:01;;;;;;;;;46.25;34.25;;;;;0.94;100.00;100917.97;5034504;28;45462;-76
2022/12/11 10:04:58;;;;;;;;;39.00;37.00;;;;;1.09;100.00;100918.00;5035611;28;46289;-79
2022/12/11 10:07:42;;;;;;;;;42.50;36.75;;;;;1.13;100.00;100916.00;5028564;28;45464;-77
2022/12/11 10:10:25;;;;;;;;;37.50;28.00;;;;;1.23;100.00;100927.94;5040022;28;45424;-78
2022/12/11 10:12:58;;;;;;;;;42.50;34.25;;;;;0.95;100.00;100927.75;5030405;28;45572;-77
2022/12/11 10:15:39;;;;;;;;;35.00;30.25;;;;;1.03;100.00;100928.16;5041591;28;47507;-78
2022/12/11 10:18:14;;;;;;;;;51.75;35.50;;;;;1.14;100.00;100913.25;5030221;28;45485;-77
2022/12/11 10:20:41;;;;;;;;;40.25;32.75;;;;;1.22;100.00;100920.00;5038850;28;45409;-77
2022/12/11 10:23:14;;;;;;;;;41.50;34.00;;;;;1.11;100.00;100913.41;5034012;28;45421;-79
2022/12/11 10:25:46;;;;;;;;;37.75;33.00;;;;;1.24;100.00;100913.63;5033604;28;46411;-77
2022/12/11 10:28:18;;;;;;;;;41.50;34.50;;;;;1.24;100.00;100894.03;5033651;28;45444;-77
2022/12/11 10:31:33;;;;;;;;;38.00;34.75;;;;;1.29;100.00;100900.84;5027781;28;45371;-78
2022/12/11 10:33:59;;;;;;;;;40.50;36.25;;;;;1.40;100.00;100886.84;5029363;28;45572;-78
2022/12/11 10:36:37;;;;;;;;;49.25;35.25;;;;;1.48;100.00;100900.66;5037788;28;46722;-78
2022/12/11 10:39:14;;;;;;;;;34.25;26.25;;;;;1.38;100.00;100889.63;5027227;28;45544;-77
2022/12/11 10:41:43;;;;;;;;;40.50;31.25;;;;;1.36;100.00;100880.81;5036598;28;45602;-77
2022/12/11 10:44:26;;;;;;;;;43.75;33.00;;;;;1.46;100.00;100882.00;5035274;28;45430;-77
2022/12/11 10:47:12;;;;;;;;;33.50;29.75;;;;;1.46;100.00;100876.63;5036349;28;45394;-78
2022/12/11 10:49:42;;;;;;;;;39.00;33.50;;;;;1.38;100.00;100873.56;5033086;28;45333;-78
2022/12/11 10:52:32;;;;;;;;;37.00;30.00;;;;;1.55;100.00;100884.16;5033142;28;45476;-77
2022/12/11 10:55:06;;;;;;;;;47.50;35.25;;;;;1.53;100.00;100875.34;5033353;28;45620;-77
2022/12/11 10:57:38;;;;;;;;;37.00;34.00;;;;;1.67;100.00;100869.22;5028262;28;46979;-79
2022/12/11 11:00:06;;;;;;;;;40.75;34.50;;;;;1.88;100.00;100867.94;5028604;28;45471;-79
2022/12/11 11:02:35;;;;;;;;;50.00;33.25;;;;;1.97;100.00;100861.19;5036075;28;45583;-78
2022/12/11 11:05:13;;;;;;;;;44.50;35.75;;;;;2.04;100.00;100856.34;5033957;28;45418;-78
2022/12/11 11:07:38;;;;;;;;;46.50;34.50;;;;;2.09;100.00;100855.09;5034847;28;46672;-77
2022/12/11 11:10:04;;;;;;;;;36.50;31.00;;;;;2.11;100.00;100855.88;5034658;28;45378;-77
2022/12/11 11:12:36;;;;;;;;;54.75;43.25;;;;;1.94;100.00;100856.88;5036379;28;45407;-77
2022/12/11 11:15:16;;;;;;;;;44.00;37.50;;;;;1.97;100.00;100854.97;5037872;28;45266;-79
2022/12/11 11:17:57;;;;;;;;;56.00;45.00;;;;;2.04;100.00;100849.16;5029389;28;45437;-78
2022/12/11 11:20:26;;;;;;;;;44.25;38.00;;;;;1.77;100.00;100848.09;5037674;28;45501;-78
2022/12/11 11:22:55;;;;;;;;;83.25;62.50;;;;;1.83;100.00;100839.69;5034994;28;45446;-77
2022/12/11 11:25:23;;;;;;;;;109.50;98.00;;;;;1.91;100.00;100838.28;5024026;28;45532;-78